sensor_id;sensor_type;location;lat;lon;timestamp;pressure;altitude;pressure_sealevel;temperature;humidity
66176;BME280;52977;44.816;20.538;2023-12-28T00:01:39;100607.19;;;9.72;67.07
66176;BME280;52977;44.816;20.538;2023-12-28T00:04:05;100523.22;;;9.12;66.57
66176;BME280;52977;44.816;20.538;2023-12-28T00:06:30;100548.00;;;9.34;66.88
66176;BME280;52977;44.816;20.538;2023-12-28T00:08:57;100621.69;;;9.86;66.76
66176;BME280;52977;44.816;20.538;2023-12-28T00:11:23;100555.06;;;9.35;66.76
66176;BME280;52977;44.816;20.538;2023-12-28T00:13:49;100556.09;;;9.39;66.46
66176;BME280;52977;44.816;20.538;2023-12-28T00:16:16;100618.47;;;9.84;66.85
66176;BME280;52977;44.816;20.538;2023-12-28T00:18:42;100562.59;;;9.44;66.82
66176;BME280;52977;44.816;20.538;2023-12-28T00:21:08;100594.78;;;9.61;66.81
66176;BME280;52977;44.816;20.538;2023-12-28T00:23:35;100597.97;;;9.68;67.27
66176;BME280;52977;44.816;20.538;2023-12-28T00:26:01;100568.53;;;9.46;67.17
66176;BME280;52977;44.816;20.538;2023-12-28T00:28:27;100562.88;;;9.42;66.91
66176;BME280;52977;44.816;20.538;2023-12-28T00:30:54;100611.28;;;9.69;67.32
66176;BME280;52977;44.816;20.538;2023-12-28T00:33:20;100590.97;;;9.62;67.45
66176;BME280;52977;44.816;20.538;2023-12-28T00:35:46;100613.16;;;9.74;67.65
66176;BME280;52977;44.816;20.538;2023-12-28T00:38:13;100620.00;;;9.71;67.93
66176;BME280;52977;44.816;20.538;2023-12-28T00:40:39;100500.31;;;8.94;67.80
66176;BME280;52977;44.816;20.538;2023-12-28T00:43:05;100602.22;;;9.55;67.92
66176;BME280;52977;44.816;20.538;2023-12-28T00:45:31;100587.28;;;9.52;68.24
66176;BME280;52977;44.816;20.538;2023-12-28T00:47:57;100503.03;;;8.94;67.97
66176;BME280;52977;44.816;20.538;2023-12-28T00:50:24;100559.69;;;9.35;68.39
66176;BME280;52977;44.816;20.538;2023-12-28T00:52:53;100567.50;;;9.41;68.08
66176;BME280;52977;44.816;20.538;2023-12-28T00:55:19;100581.53;;;9.54;68.17
66176;BME280;52977;44.816;20.538;2023-12-28T00:57:45;100579.25;;;9.42;68.25
66176;BME280;52977;44.816;20.538;2023-12-28T01:00:12;100520.38;;;9.22;67.68
66176;BME280;52977;44.816;20.538;2023-12-28T01:02:38;100534.88;;;9.17;68.01
66176;BME280;52977;44.816;20.538;2023-12-28T01:05:05;100543.94;;;9.13;68.63
66176;BME280;52977;44.816;20.538;2023-12-28T01:07:31;100612.69;;;9.48;69.07
66176;BME280;52977;44.816;20.538;2023-12-28T01:09:58;100599.34;;;9.46;69.04
66176;BME280;52977;44.816;20.538;2023-12-28T01:12:24;100568.19;;;9.09;69.01
66176;BME280;52977;44.816;20.538;2023-12-28T01:14:50;100604.41;;;9.34;69.47
66176;BME280;52977;44.816;20.538;2023-12-28T01:17:16;100609.28;;;9.37;69.48
66176;BME280;52977;44.816;20.538;2023-12-28T01:19:44;100604.88;;;9.41;69.79
66176;BME280;52977;44.816;20.538;2023-12-28T01:22:11;100576.72;;;9.27;69.56
66176;BME280;52977;44.816;20.538;2023-12-28T01:24:37;100445.94;;;8.40;69.22
66176;BME280;52977;44.816;20.538;2023-12-28T01:27:02;100539.75;;;8.96;69.77
66176;BME280;52977;44.816;20.538;2023-12-28T01:29:28;100593.41;;;9.20;70.00
66176;BME280;52977;44.816;20.538;2023-12-28T01:31:54;100585.03;;;9.35;69.71
66176;BME280;52977;44.816;20.538;2023-12-28T01:34:19;100597.84;;;9.35;70.14
66176;BME280;52977;44.816;20.538;2023-12-28T01:36:46;100459.16;;;8.52;69.65
66176;BME280;52977;44.816;20.538;2023-12-28T01:39:12;100529.22;;;8.89;70.26
66176;BME280;52977;44.816;20.538;2023-12-28T01:41:39;100534.31;;;8.96;69.46
66176;BME280;52977;44.816;20.538;2023-12-28T01:44:05;100548.69;;;9.02;70.02
66176;BME280;52977;44.816;20.538;2023-12-28T01:46:33;100510.34;;;8.74;70.27
66176;BME280;52977;44.816;20.538;2023-12-28T01:49:00;100544.63;;;8.99;70.05
66176;BME280;52977;44.816;20.538;2023-12-28T01:51:27;100561.22;;;9.03;70.21
66176;BME280;52977;44.816;20.538;2023-12-28T01:53:54;100531.34;;;8.93;69.66
66176;BME280;52977;44.816;20.538;2023-12-28T01:56:21;100545.72;;;8.98;69.70
66176;BME280;52977;44.816;20.538;2023-12-28T01:58:49;100543.06;;;8.93;70.04
66176;BME280;52977;44.816;20.538;2023-12-28T02:01:17;100516.19;;;8.86;70.68
66176;BME280;52977;44.816;20.538;2023-12-28T02:03:44;100575.69;;;9.22;70.47
66176;BME280;52977;44.816;20.538;2023-12-28T02:06:10;100530.94;;;9.04;70.88
66176;BME280;52977;44.816;20.538;2023-12-28T02:08:36;100544.88;;;9.22;70.73
66176;BME280;52977;44.816;20.538;2023-12-28T02:11:03;100536.31;;;9.10;70.68
66176;BME280;52977;44.816;20.538;2023-12-28T02:13:30;100480.16;;;8.70;70.74
66176;BME280;52977;44.816;20.538;2023-12-28T02:16:19;100481.00;;;8.90;70.79
66176;BME280;52977;44.816;20.538;2023-12-28T02:18:50;100527.28;;;9.14;70.84
66176;BME280;52977;44.816;20.538;2023-12-28T02:21:36;100506.56;;;8.94;71.09
66176;BME280;52977;44.816;20.538;2023-12-28T02:24:03;100499.41;;;8.98;70.46
66176;BME280;52977;44.816;20.538;2023-12-28T02:26:30;100523.53;;;9.10;70.77
66176;BME280;52977;44.816;20.538;2023-12-28T02:28:57;100511.00;;;9.09;70.57
66176;BME280;52977;44.816;20.538;2023-12-28T02:31:32;100499.66;;;9.02;70.70
66176;BME280;52977;44.816;20.538;2023-12-28T02:34:19;100520.72;;;9.15;70.74
66176;BME280;52977;44.816;20.538;2023-12-28T02:36:49;100530.41;;;9.27;71.17
66176;BME280;52977;44.816;20.538;2023-12-28T02:39:16;100546.22;;;9.24;70.75
66176;BME280;52977;44.816;20.538;2023-12-28T02:41:46;100493.19;;;8.98;70.54
66176;BME280;52977;44.816;20.538;2023-12-28T02:44:12;100526.69;;;9.17;70.25
66176;BME280;52977;44.816;20.538;2023-12-28T02:46:39;100544.72;;;9.13;71.08
66176;BME280;52977;44.816;20.538;2023-12-28T02:49:05;100543.53;;;9.19;71.71
66176;BME280;52977;44.816;20.538;2023-12-28T02:51:32;100544.81;;;9.27;70.67
66176;BME280;52977;44.816;20.538;2023-12-28T02:53:58;100501.50;;;9.06;70.83
66176;BME280;52977;44.816;20.538;2023-12-28T02:56:24;100521.53;;;9.16;70.52
66176;BME280;52977;44.816;20.538;2023-12-28T02:58:51;100421.41;;;8.45;70.30
66176;BME280;52977;44.816;20.538;2023-12-28T03:01:17;100530.13;;;9.04;71.21
66176;BME280;52977;44.816;20.538;2023-12-28T03:03:43;100537.50;;;9.03;71.62
66176;BME280;52977;44.816;20.538;2023-12-28T03:06:09;100519.13;;;8.90;71.77
66176;BME280;52977;44.816;20.538;2023-12-28T03:08:36;100534.78;;;9.03;71.22
66176;BME280;52977;44.816;20.538;2023-12-28T03:11:02;100485.91;;;8.69;71.36
66176;BME280;52977;44.816;20.538;2023-12-28T03:13:28;100362.34;;;7.97;71.69
66176;BME280;52977;44.816;20.538;2023-12-28T03:15:55;100487.19;;;8.77;71.58
66176;BME280;52977;44.816;20.538;2023-12-28T03:18:21;100546.75;;;9.02;71.53
66176;BME280;52977;44.816;20.538;2023-12-28T03:20:48;100480.25;;;8.65;71.70
66176;BME280;52977;44.816;20.538;2023-12-28T03:23:14;100494.81;;;8.75;72.02
66176;BME280;52977;44.816;20.538;2023-12-28T03:25:40;100492.84;;;8.80;71.53
66176;BME280;52977;44.816;20.538;2023-12-28T03:28:06;100446.38;;;8.23;71.35
66176;BME280;52977;44.816;20.538;2023-12-28T03:30:33;100544.09;;;9.21;71.65
66176;BME280;52977;44.816;20.538;2023-12-28T03:32:59;100543.53;;;9.19;71.17
66176;BME280;52977;44.816;20.538;2023-12-28T03:35:25;100516.22;;;9.05;71.86
66176;BME280;52977;44.816;20.538;2023-12-28T03:37:52;100473.16;;;8.64;71.93
66176;BME280;52977;44.816;20.538;2023-12-28T03:40:18;100553.78;;;9.09;71.84
66176;BME280;52977;44.816;20.538;2023-12-28T03:42:44;100467.19;;;8.62;71.91
66176;BME280;52977;44.816;20.538;2023-12-28T03:45:11;100514.31;;;9.06;72.21
66176;BME280;52977;44.816;20.538;2023-12-28T03:47:37;100356.78;;;8.08;72.37
66176;BME280;52977;44.816;20.538;2023-12-28T03:50:04;100509.66;;;9.06;72.30
66176;BME280;52977;44.816;20.538;2023-12-28T03:52:30;100452.47;;;8.63;72.16
66176;BME280;52977;44.816;20.538;2023-12-28T03:54:57;100523.97;;;9.17;72.24
66176;BME280;52977;44.816;20.538;2023-12-28T03:57:23;100529.56;;;9.26;71.98
66176;BME280;52977;44.816;20.538;2023-12-28T03:59:50;100513.38;;;9.16;72.13
66176;BME280;52977;44.816;20.538;2023-12-28T04:02:16;100523.97;;;9.17;72.15
66176;BME280;52977;44.816;20.538;2023-12-28T04:04:43;100450.84;;;8.38;73.13
66176;BME280;52977;44.816;20.538;2023-12-28T04:07:09;100501.81;;;8.57;73.83
66176;BME280;52977;44.816;20.538;2023-12-28T04:09:36;100471.75;;;8.13;74.55
66176;BME280;52977;44.816;20.538;2023-12-28T04:12:02;100523.53;;;8.03;76.39
66176;BME280;52977;44.816;20.538;2023-12-28T04:14:28;100536.38;;;7.92;77.28
66176;BME280;52977;44.816;20.538;2023-12-28T04:16:54;100534.56;;;7.82;77.44
66176;BME280;52977;44.816;20.538;2023-12-28T04:19:20;100516.97;;;7.75;77.99
66176;BME280;52977;44.816;20.538;2023-12-28T04:21:46;100509.13;;;7.68;77.76
66176;BME280;52977;44.816;20.538;2023-12-28T04:24:11;100505.66;;;7.97;76.92
66176;BME280;52977;44.816;20.538;2023-12-28T04:26:38;100502.94;;;8.26;75.63
66176;BME280;52977;44.816;20.538;2023-12-28T04:29:05;100527.22;;;8.47;75.25
66176;BME280;52977;44.816;20.538;2023-12-28T04:31:31;100519.31;;;8.50;74.68
66176;BME280;52977;44.816;20.538;2023-12-28T04:33:58;100528.78;;;8.24;75.57
66176;BME280;52977;44.816;20.538;2023-12-28T04:36:24;100524.25;;;8.14;76.95
66176;BME280;52977;44.816;20.538;2023-12-28T04:38:50;100512.22;;;8.20;76.18
66176;BME280;52977;44.816;20.538;2023-12-28T04:41:17;100463.38;;;8.10;75.74
66176;BME280;52977;44.816;20.538;2023-12-28T04:43:45;100530.22;;;8.45;75.54
66176;BME280;52977;44.816;20.538;2023-12-28T04:46:11;100479.88;;;7.89;75.32
66176;BME280;52977;44.816;20.538;2023-12-28T04:48:37;100521.44;;;8.24;76.02
66176;BME280;52977;44.816;20.538;2023-12-28T04:51:04;100501.63;;;7.89;76.41
66176;BME280;52977;44.816;20.538;2023-12-28T04:53:30;100516.09;;;8.14;76.82
66176;BME280;52977;44.816;20.538;2023-12-28T04:55:58;100465.09;;;7.66;77.24
66176;BME280;52977;44.816;20.538;2023-12-28T04:58:24;100485.88;;;7.86;76.87
66176;BME280;52977;44.816;20.538;2023-12-28T05:00:50;100421.13;;;7.59;76.81
66176;BME280;52977;44.816;20.538;2023-12-28T05:03:18;100453.59;;;7.79;76.73
66176;BME280;52977;44.816;20.538;2023-12-28T05:05:44;100424.72;;;7.54;76.71
66176;BME280;52977;44.816;20.538;2023-12-28T05:08:10;100486.31;;;7.98;77.01
66176;BME280;52977;44.816;20.538;2023-12-28T05:10:36;100367.50;;;7.06;77.27
66176;BME280;52977;44.816;20.538;2023-12-28T05:13:04;100458.69;;;7.86;76.83
66176;BME280;52977;44.816;20.538;2023-12-28T05:15:30;100488.00;;;8.24;76.21
66176;BME280;52977;44.816;20.538;2023-12-28T05:17:56;100463.41;;;8.04;75.76
66176;BME280;52977;44.816;20.538;2023-12-28T05:20:23;100453.69;;;7.98;75.79
66176;BME280;52977;44.816;20.538;2023-12-28T05:22:49;100372.47;;;7.33;76.57
66176;BME280;52977;44.816;20.538;2023-12-28T05:25:16;100359.91;;;7.03;77.83
66176;BME280;52977;44.816;20.538;2023-12-28T05:27:42;100467.28;;;7.69;77.50
66176;BME280;52977;44.816;20.538;2023-12-28T05:30:09;100487.78;;;7.85;77.53
66176;BME280;52977;44.816;20.538;2023-12-28T05:32:35;100472.09;;;7.77;77.13
66176;BME280;52977;44.816;20.538;2023-12-28T05:35:02;100464.63;;;7.14;79.54
66176;BME280;52977;44.816;20.538;2023-12-28T05:37:29;100516.69;;;7.31;80.16
66176;BME280;52977;44.816;20.538;2023-12-28T05:39:56;100517.38;;;7.52;79.44
66176;BME280;52977;44.816;20.538;2023-12-28T05:42:23;100443.66;;;6.80;80.24
66176;BME280;52977;44.816;20.538;2023-12-28T05:44:48;100510.22;;;7.22;80.49
66176;BME280;52977;44.816;20.538;2023-12-28T05:47:14;100503.44;;;7.19;80.12
66176;BME280;52977;44.816;20.538;2023-12-28T05:49:40;100543.47;;;7.53;80.02
66176;BME280;52977;44.816;20.538;2023-12-28T05:52:06;100484.03;;;7.42;79.05
66176;BME280;52977;44.816;20.538;2023-12-28T05:54:32;100490.50;;;7.46;79.04
66176;BME280;52977;44.816;20.538;2023-12-28T05:56:58;100492.53;;;7.69;77.74
66176;BME280;52977;44.816;20.538;2023-12-28T05:59:24;100508.09;;;7.93;77.63
66176;BME280;52977;44.816;20.538;2023-12-28T06:01:51;100488.81;;;7.90;77.18
66176;BME280;52977;44.816;20.538;2023-12-28T06:04:18;100457.44;;;7.73;77.40
66176;BME280;52977;44.816;20.538;2023-12-28T06:06:44;100514.84;;;8.01;77.64
66176;BME280;52977;44.816;20.538;2023-12-28T06:09:10;100484.44;;;7.94;76.64
66176;BME280;52977;44.816;20.538;2023-12-28T06:11:36;100472.72;;;7.98;76.47
66176;BME280;52977;44.816;20.538;2023-12-28T06:14:02;100498.88;;;7.94;77.05
66176;BME280;52977;44.816;20.538;2023-12-28T06:16:28;100412.94;;;7.29;77.19
66176;BME280;52977;44.816;20.538;2023-12-28T06:18:58;100483.50;;;7.74;78.16
66176;BME280;52977;44.816;20.538;2023-12-28T06:21:25;100476.72;;;7.72;78.01
66176;BME280;52977;44.816;20.538;2023-12-28T06:23:52;100523.97;;;7.81;77.84
66176;BME280;52977;44.816;20.538;2023-12-28T06:26:18;100441.16;;;7.33;78.57
66176;BME280;52977;44.816;20.538;2023-12-28T06:28:44;100501.53;;;7.65;79.18
66176;BME280;52977;44.816;20.538;2023-12-28T06:31:10;100499.31;;;7.72;78.36
66176;BME280;52977;44.816;20.538;2023-12-28T06:33:37;100511.53;;;7.75;77.92
66176;BME280;52977;44.816;20.538;2023-12-28T06:36:06;100521.56;;;7.29;80.13
66176;BME280;52977;44.816;20.538;2023-12-28T06:38:31;100454.66;;;7.04;79.57
66176;BME280;52977;44.816;20.538;2023-12-28T06:40:58;100445.88;;;6.62;79.38
66176;BME280;52977;44.816;20.538;2023-12-28T06:43:24;100505.03;;;7.70;78.23
66176;BME280;52977;44.816;20.538;2023-12-28T06:45:51;100481.97;;;7.23;78.66
66176;BME280;52977;44.816;20.538;2023-12-28T06:48:18;100395.63;;;6.75;78.73
66176;BME280;52977;44.816;20.538;2023-12-28T06:50:45;100485.66;;;7.43;79.23
66176;BME280;52977;44.816;20.538;2023-12-28T06:53:11;100451.63;;;7.85;80.44
66176;BME280;52977;44.816;20.538;2023-12-28T06:55:37;100467.56;;;8.26;78.35
66176;BME280;52977;44.816;20.538;2023-12-28T06:58:03;100426.06;;;7.86;76.63
66176;BME280;52977;44.816;20.538;2023-12-28T07:00:30;100474.44;;;7.89;76.94
66176;BME280;52977;44.816;20.538;2023-12-28T07:02:56;100511.03;;;7.67;78.04
66176;BME280;52977;44.816;20.538;2023-12-28T07:05:23;100535.56;;;7.97;77.69
66176;BME280;52977;44.816;20.538;2023-12-28T07:07:49;100492.06;;;7.57;77.70
66176;BME280;52977;44.816;20.538;2023-12-28T07:10:16;100545.69;;;7.41;79.58
66176;BME280;52977;44.816;20.538;2023-12-28T07:12:42;100497.97;;;7.25;80.03
66176;BME280;52977;44.816;20.538;2023-12-28T07:15:09;100543.53;;;7.83;78.78
66176;BME280;52977;44.816;20.538;2023-12-28T07:17:39;100531.78;;;7.93;77.47
66176;BME280;52977;44.816;20.538;2023-12-28T07:20:06;100482.44;;;7.70;77.19
66176;BME280;52977;44.816;20.538;2023-12-28T07:22:35;100535.41;;;7.78;77.54
66176;BME280;52977;44.816;20.538;2023-12-28T07:25:00;100559.09;;;7.22;80.88
66176;BME280;52977;44.816;20.538;2023-12-28T07:27:27;100560.81;;;7.03;81.66
66176;BME280;52977;44.816;20.538;2023-12-28T07:29:53;100518.50;;;6.91;81.67
66176;BME280;52977;44.816;20.538;2023-12-28T07:32:19;100431.88;;;6.35;80.98
66176;BME280;52977;44.816;20.538;2023-12-28T07:34:46;100545.38;;;7.48;80.87
66176;BME280;52977;44.816;20.538;2023-12-28T07:37:12;100403.53;;;6.72;79.26
66176;BME280;52977;44.816;20.538;2023-12-28T07:39:39;100488.31;;;7.48;78.75
66176;BME280;52977;44.816;20.538;2023-12-28T07:42:05;100519.59;;;7.85;78.25
66176;BME280;52977;44.816;20.538;2023-12-28T07:44:32;100560.13;;;8.16;78.07
66176;BME280;52977;44.816;20.538;2023-12-28T07:46:58;100551.94;;;8.21;77.05
66176;BME280;52977;44.816;20.538;2023-12-28T07:49:25;100514.22;;;8.09;77.33
66176;BME280;52977;44.816;20.538;2023-12-28T07:51:51;100519.00;;;8.23;77.03
66176;BME280;52977;44.816;20.538;2023-12-28T07:54:17;100546.78;;;8.19;77.13
66176;BME280;52977;44.816;20.538;2023-12-28T07:56:44;100545.91;;;8.24;77.36
66176;BME280;52977;44.816;20.538;2023-12-28T07:59:10;100548.63;;;8.24;77.53
66176;BME280;52977;44.816;20.538;2023-12-28T08:01:36;100553.19;;;8.29;78.63
66176;BME280;52977;44.816;20.538;2023-12-28T08:04:03;100501.72;;;7.79;77.56
66176;BME280;52977;44.816;20.538;2023-12-28T08:06:29;100522.22;;;7.95;78.45
66176;BME280;52977;44.816;20.538;2023-12-28T08:09:15;100562.25;;;8.19;78.39
66176;BME280;52977;44.816;20.538;2023-12-28T08:11:41;100400.53;;;7.18;77.98
66176;BME280;52977;44.816;20.538;2023-12-28T08:14:08;100532.06;;;7.91;78.83
66176;BME280;52977;44.816;20.538;2023-12-28T08:16:34;100518.13;;;7.63;79.93
66176;BME280;52977;44.816;20.538;2023-12-28T08:19:01;100558.91;;;7.58;80.78
66176;BME280;52977;44.816;20.538;2023-12-28T08:21:28;100492.53;;;7.30;80.77
66176;BME280;52977;44.816;20.538;2023-12-28T08:23:54;100568.38;;;8.06;80.22
66176;BME280;52977;44.816;20.538;2023-12-28T08:26:20;100538.59;;;7.90;78.19
66176;BME280;52977;44.816;20.538;2023-12-28T08:28:46;100540.03;;;7.77;80.33
66176;BME280;52977;44.816;20.538;2023-12-28T08:31:12;100431.47;;;7.22;80.45
66176;BME280;52977;44.816;20.538;2023-12-28T08:33:39;100519.56;;;7.90;79.94
66176;BME280;52977;44.816;20.538;2023-12-28T08:36:09;100539.19;;;8.16;80.18
66176;BME280;52977;44.816;20.538;2023-12-28T08:38:35;100481.69;;;7.99;78.98
66176;BME280;52977;44.816;20.538;2023-12-28T08:41:02;100578.72;;;8.67;78.67
66176;BME280;52977;44.816;20.538;2023-12-28T08:43:29;100551.69;;;8.76;82.42
66176;BME280;52977;44.816;20.538;2023-12-28T08:45:56;100539.22;;;8.94;80.90
66176;BME280;52977;44.816;20.538;2023-12-28T08:48:22;100514.06;;;8.83;75.97
66176;BME280;52977;44.816;20.538;2023-12-28T08:50:49;100549.13;;;8.61;78.63
66176;BME280;52977;44.816;20.538;2023-12-28T08:53:14;100438.06;;;7.80;80.54
66176;BME280;52977;44.816;20.538;2023-12-28T08:55:41;100570.47;;;8.48;81.26
66176;BME280;52977;44.816;20.538;2023-12-28T08:58:07;100509.47;;;8.25;80.93
66176;BME280;52977;44.816;20.538;2023-12-28T09:00:34;100559.03;;;8.51;82.24
66176;BME280;52977;44.816;20.538;2023-12-28T09:03:00;100576.84;;;8.33;83.11
66176;BME280;52977;44.816;20.538;2023-12-28T09:05:26;100569.44;;;8.39;82.59
66176;BME280;52977;44.816;20.538;2023-12-28T09:07:53;100572.50;;;8.32;81.99
66176;BME280;52977;44.816;20.538;2023-12-28T09:10:19;100542.84;;;8.01;82.61
66176;BME280;52977;44.816;20.538;2023-12-28T09:12:45;100503.59;;;7.44;83.17
66176;BME280;52977;44.816;20.538;2023-12-28T09:15:13;100506.53;;;7.47;83.42
66176;BME280;52977;44.816;20.538;2023-12-28T09:17:39;100583.75;;;7.86;84.17
66176;BME280;52977;44.816;20.538;2023-12-28T09:20:05;100513.13;;;7.36;84.57
66176;BME280;52977;44.816;20.538;2023-12-28T09:22:32;100565.22;;;7.88;84.00
66176;BME280;52977;44.816;20.538;2023-12-28T09:24:59;100558.69;;;7.94;83.64
66176;BME280;52977;44.816;20.538;2023-12-28T09:27:25;100569.91;;;8.17;83.68
66176;BME280;52977;44.816;20.538;2023-12-28T09:29:52;100563.28;;;8.28;83.69
66176;BME280;52977;44.816;20.538;2023-12-28T09:32:18;100540.25;;;8.20;82.50
66176;BME280;52977;44.816;20.538;2023-12-28T09:34:44;100552.06;;;8.35;82.43
66176;BME280;52977;44.816;20.538;2023-12-28T09:37:11;100465.75;;;7.87;81.78
66176;BME280;52977;44.816;20.538;2023-12-28T09:39:37;100496.19;;;8.18;82.15
66176;BME280;52977;44.816;20.538;2023-12-28T09:42:28;100543.22;;;8.53;81.27
66176;BME280;52977;44.816;20.538;2023-12-28T09:44:55;100480.13;;;8.22;80.22
66176;BME280;52977;44.816;20.538;2023-12-28T09:47:22;100437.28;;;8.09;79.55
66176;BME280;52977;44.816;20.538;2023-12-28T09:49:49;100537.72;;;8.83;79.40
66176;BME280;52977;44.816;20.538;2023-12-28T09:52:14;100525.41;;;8.91;78.82
66176;BME280;52977;44.816;20.538;2023-12-28T09:54:41;100474.50;;;8.67;77.99
66176;BME280;52977;44.816;20.538;2023-12-28T09:57:09;100509.22;;;8.99;77.46
66176;BME280;52977;44.816;20.538;2023-12-28T09:59:35;100506.50;;;8.99;77.24
66176;BME280;52977;44.816;20.538;2023-12-28T10:02:02;100512.19;;;9.03;77.48
66176;BME280;52977;44.816;20.538;2023-12-28T10:04:29;100507.47;;;9.09;76.97
66176;BME280;52977;44.816;20.538;2023-12-28T10:06:56;100494.97;;;9.07;76.70
66176;BME280;52977;44.816;20.538;2023-12-28T10:09:22;100474.53;;;8.86;76.45
66176;BME280;52977;44.816;20.538;2023-12-28T10:11:48;100505.63;;;9.04;77.71
66176;BME280;52977;44.816;20.538;2023-12-28T10:14:15;100471.16;;;8.94;77.36
66176;BME280;52977;44.816;20.538;2023-12-28T10:16:41;100499.47;;;9.17;76.86
66176;BME280;52977;44.816;20.538;2023-12-28T10:19:08;100494.81;;;9.18;77.31
66176;BME280;52977;44.816;20.538;2023-12-28T10:21:34;100487.66;;;9.22;77.69
66176;BME280;52977;44.816;20.538;2023-12-28T10:24:02;100446.13;;;8.92;76.50
66176;BME280;52977;44.816;20.538;2023-12-28T10:26:28;100478.03;;;9.11;75.90
66176;BME280;52977;44.816;20.538;2023-12-28T10:28:59;100514.78;;;9.32;75.58
66176;BME280;52977;44.816;20.538;2023-12-28T10:31:26;100510.28;;;9.22;76.21
66176;BME280;52977;44.816;20.538;2023-12-28T10:33:52;100429.25;;;8.71;76.21
66176;BME280;52977;44.816;20.538;2023-12-28T10:36:19;100494.81;;;9.18;75.74
66176;BME280;52977;44.816;20.538;2023-12-28T10:38:47;100496.28;;;9.29;75.63
66176;BME280;52977;44.816;20.538;2023-12-28T10:41:17;100453.81;;;9.09;76.07
66176;BME280;52977;44.816;20.538;2023-12-28T10:44:04;100460.53;;;9.17;76.99
66176;BME280;52977;44.816;20.538;2023-12-28T10:46:32;100428.31;;;9.00;76.37
66176;BME280;52977;44.816;20.538;2023-12-28T10:49:07;100490.53;;;9.50;76.47
66176;BME280;52977;44.816;20.538;2023-12-28T10:51:36;100427.38;;;9.29;76.37
66176;BME280;52977;44.816;20.538;2023-12-28T10:54:52;100492.50;;;9.82;77.41
66176;BME280;52977;44.816;20.538;2023-12-28T10:57:40;100483.25;;;9.97;74.84
66176;BME280;52977;44.816;20.538;2023-12-28T11:00:13;100467.28;;;9.90;74.60
66176;BME280;52977;44.816;20.538;2023-12-28T11:02:45;100484.66;;;9.95;75.04
66176;BME280;52977;44.816;20.538;2023-12-28T11:05:12;100482.22;;;9.93;74.68
66176;BME280;52977;44.816;20.538;2023-12-28T11:07:41;100467.28;;;9.90;74.99
66176;BME280;52977;44.816;20.538;2023-12-28T11:10:08;100472.94;;;9.94;75.67
66176;BME280;52977;44.816;20.538;2023-12-28T11:12:37;100458.31;;;10.04;77.49
66176;BME280;52977;44.816;20.538;2023-12-28T11:15:05;100430.97;;;9.76;76.59
66176;BME280;52977;44.816;20.538;2023-12-28T11:17:33;100471.38;;;10.21;75.60
66176;BME280;52977;44.816;20.538;2023-12-28T11:20:02;100471.91;;;10.23;75.45
66176;BME280;52977;44.816;20.538;2023-12-28T11:22:31;100474.31;;;10.11;76.28
66176;BME280;52977;44.816;20.538;2023-12-28T11:24:58;100471.66;;;10.05;76.39
66176;BME280;52977;44.816;20.538;2023-12-28T11:27:24;100472.94;;;9.94;76.90
66176;BME280;52977;44.816;20.538;2023-12-28T11:29:51;100448.97;;;9.77;76.97
66176;BME280;52977;44.816;20.538;2023-12-28T11:32:19;100428.94;;;9.68;76.56
66176;BME280;52977;44.816;20.538;2023-12-28T11:34:56;100453.84;;;9.94;76.34
66176;BME280;52977;44.816;20.538;2023-12-28T11:37:23;100430.97;;;9.76;75.60
66176;BME280;52977;44.816;20.538;2023-12-28T11:39:52;100450.91;;;9.90;75.08
66176;BME280;52977;44.816;20.538;2023-12-28T11:42:23;100439.19;;;9.90;75.41
66176;BME280;52977;44.816;20.538;2023-12-28T11:44:56;100452.66;;;10.14;74.62
66176;BME280;52977;44.816;20.538;2023-12-28T11:47:24;100450.94;;;10.37;74.11
66176;BME280;52977;44.816;20.538;2023-12-28T11:49:51;100446.75;;;10.26;73.56
66176;BME280;52977;44.816;20.538;2023-12-28T11:52:29;100401.84;;;10.04;73.09
66176;BME280;52977;44.816;20.538;2023-12-28T11:54:56;100451.81;;;10.33;73.53
66176;BME280;52977;44.816;20.538;2023-12-28T11:57:23;100450.56;;;10.25;73.85
66176;BME280;52977;44.816;20.538;2023-12-28T11:59:57;100450.50;;;10.30;74.19
66176;BME280;52977;44.816;20.538;2023-12-28T12:02:25;100431.16;;;10.26;74.04
66176;BME280;52977;44.816;20.538;2023-12-28T12:04:54;100272.16;;;9.23;73.65
66176;BME280;52977;44.816;20.538;2023-12-28T12:07:21;100435.75;;;10.45;73.65
66176;BME280;52977;44.816;20.538;2023-12-28T12:09:47;100433.63;;;10.42;74.48
66176;BME280;52977;44.816;20.538;2023-12-28T12:12:16;100366.50;;;10.13;73.50
66176;BME280;52977;44.816;20.538;2023-12-28T12:14:42;100411.19;;;10.31;74.17
66176;BME280;52977;44.816;20.538;2023-12-28T12:17:09;100408.53;;;10.26;73.74
66176;BME280;52977;44.816;20.538;2023-12-28T12:19:35;100386.81;;;10.21;74.22
66176;BME280;52977;44.816;20.538;2023-12-28T12:22:01;100410.03;;;10.32;74.62
66176;BME280;52977;44.816;20.538;2023-12-28T12:24:28;100407.03;;;10.62;83.71
66176;BME280;52977;44.816;20.538;2023-12-28T12:26:55;100421.19;;;10.77;74.44
66176;BME280;52977;44.816;20.538;2023-12-28T12:29:22;100401.56;;;10.75;74.11
66176;BME280;52977;44.816;20.538;2023-12-28T12:31:48;100404.66;;;10.83;73.75
66176;BME280;52977;44.816;20.538;2023-12-28T12:34:18;100320.81;;;10.33;73.83
66176;BME280;52977;44.816;20.538;2023-12-28T12:36:44;100396.69;;;10.86;73.81
66176;BME280;52977;44.816;20.538;2023-12-28T12:39:10;100397.63;;;10.82;73.63
66176;BME280;52977;44.816;20.538;2023-12-28T12:41:37;100387.19;;;10.84;73.13
66176;BME280;52977;44.816;20.538;2023-12-28T12:44:04;100328.56;;;10.67;72.62
66176;BME280;52977;44.816;20.538;2023-12-28T12:46:31;100345.47;;;10.92;72.28
66176;BME280;52977;44.816;20.538;2023-12-28T12:48:59;100327.47;;;10.91;71.97